createdAt,value
2017-01-21T00:07:18.206Z,-1.1
2017-01-21T00:17:32.207Z,-1
2017-01-21T00:27:46.371Z,-1.4
2017-01-21T00:38:01.202Z,-1.5
2017-01-21T00:48:15.137Z,-1
2017-01-21T00:58:29.958Z,-1.1
2017-01-21T01:08:43.877Z,-1
2017-01-21T01:18:57.314Z,-0.7
2017-01-21T01:29:10.488Z,-0.6
2017-01-21T01:39:24.482Z,-0.8
2017-01-21T01:49:37.850Z,-1
2017-01-21T01:59:51.805Z,-0.8
2017-01-21T02:10:05.080Z,-0.8
2017-01-21T02:20:19.178Z,-1
2017-01-21T02:30:34.045Z,-1
2017-01-21T02:40:48.555Z,-0.9
2017-01-21T02:51:03.196Z,-1
2017-01-21T03:01:16.342Z,-1.2
2017-01-21T03:11:29.840Z,-1.1
2017-01-21T03:21:43.786Z,-1
2017-01-21T03:31:57.077Z,-1.1
2017-01-21T03:42:11.777Z,-1.4
2017-01-21T03:52:24.901Z,-1.3
2017-01-21T04:02:38.736Z,-1.3
2017-01-21T04:12:52.191Z,-1.4
2017-01-21T04:23:06.387Z,-1.3
2017-01-21T04:33:19.883Z,-1.4
2017-01-21T04:43:34.215Z,-1.4
2017-01-21T04:53:48.674Z,-1.7
2017-01-21T05:04:03.379Z,-1.9
2017-01-21T05:14:16.510Z,-1.8
2017-01-21T05:24:30.631Z,-1.7
2017-01-21T05:34:44.227Z,-1.6
2017-01-21T05:44:59.127Z,-1.9
2017-01-21T05:55:13.405Z,-1.8
2017-01-21T06:05:28.281Z,-1.8
2017-01-21T06:15:41.348Z,-1.8
2017-01-21T06:25:55.504Z,-2.1
2017-01-21T06:36:09.907Z,-2.2
2017-01-21T06:46:23.308Z,-2.3
2017-01-21T06:56:38.083Z,-2.5
2017-01-21T07:06:52.300Z,-2.7
2017-01-21T07:17:05.611Z,-2.5
2017-01-21T07:27:19.752Z,-2.9
2017-01-21T07:37:33.797Z,-2.5
2017-01-21T07:47:47.652Z,-2.7
2017-01-21T07:58:01.610Z,-2.4
2017-01-21T08:08:15.910Z,-2.1
2017-01-21T08:18:29.077Z,-1.8
2017-01-21T08:28:43.046Z,-1.5
2017-01-21T08:38:57.254Z,-0.7
2017-01-21T08:49:11.720Z,-0.4
2017-01-21T08:59:25.760Z,0.3
2017-01-21T09:09:39.704Z,0.9
2017-01-21T09:19:52.711Z,1
2017-01-21T09:30:06.377Z,1.3
2017-01-21T09:40:21.308Z,1.5
2017-01-21T09:50:35.345Z,2.3
2017-01-21T10:00:49.509Z,2.8
2017-01-21T10:11:03.007Z,3.1
2017-01-21T10:21:16.711Z,3.6
2017-01-21T10:31:30.277Z,3.8
2017-01-21T10:41:44.894Z,4.2
2017-01-21T10:52:00.030Z,3.9
2017-01-21T11:02:13.514Z,4.3
2017-01-21T11:12:27.525Z,4.2
2017-01-21T11:22:42.505Z,4.7
2017-01-21T11:32:55.573Z,4.6
2017-01-21T11:43:10.130Z,5.5
2017-01-21T11:53:24.793Z,5.1
2017-01-21T12:03:38.065Z,5.1
2017-01-21T12:13:52.363Z,5.4
2017-01-21T12:24:05.833Z,5.9
2017-01-21T12:34:20.984Z,5.8
2017-01-21T12:44:34.458Z,5.6
2017-01-21T12:54:49.351Z,5.9
2017-01-21T13:05:03.181Z,5.5
2017-01-21T13:15:18.218Z,5.8
2017-01-21T13:25:32.035Z,5.7
2017-01-21T13:35:46.296Z,5.4
2017-01-21T13:46:01.003Z,5.2
2017-01-21T13:56:14.645Z,5
2017-01-21T14:06:29.164Z,5
2017-01-21T14:16:43.022Z,5
2017-01-21T14:26:58.124Z,4.7
2017-01-21T14:37:12.771Z,4.6
2017-01-21T14:47:26.136Z,4.4
2017-01-21T14:57:40.670Z,4.2
2017-01-21T15:07:55.360Z,3.9
2017-01-21T15:18:09.184Z,3.5
2017-01-21T15:28:23.826Z,3.5
2017-01-21T15:38:38.415Z,2.7
2017-01-21T15:48:52.008Z,1.6
2017-01-21T15:59:06.976Z,0.8
2017-01-21T16:09:21.464Z,0.3
2017-01-21T16:19:36.479Z,0.6
2017-01-21T16:29:51.066Z,0.5
2017-01-21T16:40:05.267Z,1.3
2017-01-21T16:50:20.079Z,1.3
2017-01-21T17:00:34.496Z,0.9
2017-01-21T17:10:47.546Z,1.5
2017-01-21T17:21:01.762Z,1.3
2017-01-21T17:31:15.061Z,1.3
2017-01-21T17:41:28.681Z,0.7
2017-01-21T17:51:43.656Z,0.3
2017-01-21T18:01:57.612Z,0.2
2017-01-21T18:12:11.072Z,-0.2
2017-01-21T18:22:24.868Z,0
2017-01-21T18:32:39.756Z,0.1
2017-01-21T18:42:53.617Z,0.8
2017-01-21T18:53:07.794Z,1.1
2017-01-21T19:03:22.016Z,0.5
2017-01-21T19:13:35.743Z,0.3
2017-01-21T19:23:49.887Z,-0.4
2017-01-21T19:34:04.577Z,0.2
2017-01-21T19:44:17.627Z,0.6
2017-01-21T19:54:32.061Z,0.6
2017-01-21T20:04:45.143Z,0.6
2017-01-21T20:14:59.484Z,0.4
2017-01-21T20:25:14.260Z,0.2
2017-01-21T20:35:27.956Z,-0.2
2017-01-21T20:45:42.750Z,-0.8
2017-01-21T20:55:56.435Z,-1
2017-01-21T21:06:10.151Z,-1.6
2017-01-21T21:16:24.623Z,-2.7
2017-01-21T21:26:38.264Z,-2.9
2017-01-21T21:36:52.105Z,-2.2
2017-01-21T21:47:05.748Z,-2.5
2017-01-21T21:57:19.859Z,-2.1
2017-01-21T22:07:33.092Z,-1.7
2017-01-21T22:17:48.124Z,-1.8
2017-01-21T22:28:01.632Z,-1.9
2017-01-21T22:38:15.576Z,-2.5
2017-01-21T22:48:29.059Z,-2.6
2017-01-21T22:58:42.691Z,-2.9
2017-01-21T23:08:55.809Z,-3.3
2017-01-21T23:19:09.510Z,-3
2017-01-21T23:29:23.394Z,-3
2017-01-21T23:39:37.927Z,-2.9
2017-01-21T23:49:51.017Z,-3.8
